createdAt,value
2018-09-18T00:02:22.558Z,64.79
2018-09-18T00:04:50.270Z,64.75
2018-09-18T00:07:17.966Z,64.39
2018-09-18T00:09:45.628Z,63.76
2018-09-18T00:12:13.329Z,64.02
2018-09-18T00:14:41.005Z,64.39
2018-09-18T00:17:08.669Z,64.29
2018-09-18T00:19:36.387Z,64.49
2018-09-18T00:22:04.073Z,64.27
2018-09-18T00:24:31.740Z,64.22
2018-09-18T00:26:59.439Z,64.08
2018-09-18T00:29:27.130Z,64.42
2018-09-18T00:31:54.806Z,64.24
2018-09-18T00:34:22.513Z,64.25
2018-09-18T00:36:50.258Z,64.63
2018-09-18T00:39:17.925Z,64.45
2018-09-18T00:41:45.713Z,64.78
2018-09-18T00:44:13.383Z,64.51
2018-09-18T00:46:41.053Z,65.49
2018-09-18T00:49:08.797Z,65.31
2018-09-18T00:51:36.470Z,65.83
2018-09-18T00:54:04.129Z,65.76
2018-09-18T00:56:31.842Z,65.71
2018-09-18T00:58:59.518Z,65.50
2018-09-18T01:01:27.188Z,65.24
2018-09-18T01:03:54.920Z,65.52
2018-09-18T01:06:22.603Z,65.86
2018-09-18T01:08:50.266Z,65.82
2018-09-18T01:11:17.997Z,65.66
2018-09-18T01:13:45.777Z,65.92
2018-09-18T01:16:13.464Z,65.93
2018-09-18T01:18:42.228Z,65.78
2018-09-18T01:21:10.670Z,66.52
2018-09-18T01:23:38.378Z,66.12
2018-09-18T01:26:06.118Z,66.48
2018-09-18T01:28:34.269Z,66.72
2018-09-18T01:31:02.157Z,66.43
2018-09-18T01:33:29.859Z,67.20
2018-09-18T01:35:57.537Z,67.11
2018-09-18T01:38:25.427Z,67.11
2018-09-18T01:40:53.543Z,66.98
2018-09-18T01:43:21.347Z,66.47
2018-09-18T01:45:49.335Z,67.25
2018-09-18T01:48:17.079Z,66.75
2018-09-18T01:50:44.738Z,67.28
2018-09-18T01:53:12.407Z,66.96
2018-09-18T01:55:40.109Z,67.85
2018-09-18T01:58:07.785Z,67.89
2018-09-18T02:00:35.489Z,67.89
2018-09-18T02:03:03.183Z,67.27
2018-09-18T02:05:30.874Z,68.56
2018-09-18T02:07:58.578Z,68.02
2018-09-18T02:10:26.498Z,67.61
2018-09-18T02:12:54.198Z,67.73
2018-09-18T02:15:21.865Z,68.28
2018-09-18T02:17:49.557Z,68.08
2018-09-18T02:20:17.230Z,68.47
2018-09-18T02:22:44.918Z,68.81
2018-09-18T02:25:12.636Z,68.10
2018-09-18T02:27:40.334Z,67.92
2018-09-18T02:30:08.030Z,68.18
2018-09-18T02:32:35.846Z,67.82
2018-09-18T02:35:03.748Z,67.66
2018-09-18T02:37:31.420Z,68.62
2018-09-18T02:39:59.120Z,68.09
2018-09-18T02:42:26.883Z,68.93
2018-09-18T02:44:54.580Z,69.37
2018-09-18T02:47:22.286Z,69.89
2018-09-18T02:49:49.958Z,69.14
2018-09-18T02:52:17.691Z,69.34
2018-09-18T02:54:45.375Z,70.78
2018-09-18T02:57:13.058Z,70.56
2018-09-18T02:59:40.718Z,70.41
2018-09-18T03:02:08.466Z,70.18
2018-09-18T03:04:36.142Z,70.31
2018-09-18T03:07:03.889Z,70.07
2018-09-18T03:09:31.584Z,70.18
2018-09-18T03:11:59.250Z,70.34
2018-09-18T03:14:26.910Z,70.03
2018-09-18T03:16:54.604Z,69.87
2018-09-18T03:19:22.269Z,69.79
2018-09-18T03:21:50.339Z,69.79
2018-09-18T03:24:18.017Z,69.87
2018-09-18T03:26:45.698Z,70.49
2018-09-18T03:29:13.369Z,69.99
2018-09-18T03:31:41.097Z,69.69
2018-09-18T03:34:08.773Z,70.11
2018-09-18T03:36:36.477Z,70.13
2018-09-18T03:39:05.371Z,70.82
2018-09-18T03:41:33.065Z,71.40
2018-09-18T03:44:00.708Z,70.61
2018-09-18T03:46:28.445Z,70.49
2018-09-18T03:48:56.193Z,70.54
2018-09-18T03:51:23.877Z,70.01
2018-09-18T03:53:51.555Z,70.51
2018-09-18T03:56:19.200Z,70.68
2018-09-18T03:58:46.866Z,69.95
2018-09-18T04:01:14.627Z,69.67
2018-09-18T04:03:42.307Z,69.67
2018-09-18T04:06:09.979Z,69.95
2018-09-18T04:08:37.673Z,69.51
2018-09-18T04:11:05.354Z,69.75
2018-09-18T04:13:33.022Z,69.62
2018-09-18T04:16:00.730Z,69.24
2018-09-18T04:18:28.504Z,68.88
2018-09-18T04:20:56.161Z,68.61
2018-09-18T04:23:23.909Z,66.32
2018-09-18T04:25:51.569Z,63.15
2018-09-18T04:28:19.239Z,58.85
2018-09-18T04:30:47.238Z,57.18
2018-09-18T04:33:14.928Z,55.39
2018-09-18T04:35:42.581Z,55.79
2018-09-18T04:38:10.294Z,58.73
2018-09-18T04:40:38.018Z,59.79
2018-09-18T04:43:05.714Z,56.94
2018-09-18T04:45:33.442Z,51.62
2018-09-18T04:48:01.150Z,48.83
2018-09-18T04:50:28.859Z,47.67
2018-09-18T04:52:56.558Z,45.72
2018-09-18T04:55:24.250Z,44.52
2018-09-18T04:57:51.914Z,43.53
2018-09-18T05:00:19.630Z,43.28
2018-09-18T05:02:47.295Z,44.84
2018-09-18T05:05:14.953Z,45.19
2018-09-18T05:07:42.674Z,44.17
2018-09-18T05:10:10.338Z,45.05
2018-09-18T05:12:38.002Z,45.17
2018-09-18T05:15:05.806Z,48.13
2018-09-18T05:17:33.797Z,47.30
2018-09-18T05:20:01.738Z,43.59
2018-09-18T05:22:29.418Z,40.58
2018-09-18T05:24:57.142Z,41.03
2018-09-18T05:27:24.821Z,40.57
2018-09-18T05:29:52.544Z,39.97
2018-09-18T05:32:20.291Z,42.89
2018-09-18T05:34:48.203Z,43.83
2018-09-18T05:37:16.450Z,44.60
2018-09-18T05:39:44.177Z,43.31
2018-09-18T05:42:11.838Z,42.69
2018-09-18T05:44:39.640Z,41.02
2018-09-18T05:47:07.930Z,40.26
2018-09-18T05:49:35.624Z,40.41
2018-09-18T05:52:03.316Z,40.29
2018-09-18T05:54:30.977Z,40.67
2018-09-18T05:56:58.657Z,43.38
2018-09-18T05:59:26.349Z,43.24
2018-09-18T06:01:54.019Z,42.65
2018-09-18T06:04:21.673Z,43.46
2018-09-18T06:06:49.373Z,44.98
2018-09-18T06:09:17.054Z,47.45
2018-09-18T06:11:44.749Z,45.70
2018-09-18T06:14:12.429Z,46.75
2018-09-18T06:16:40.087Z,44.40
2018-09-18T06:19:07.814Z,44.98
2018-09-18T06:21:35.519Z,42.44
2018-09-18T06:24:03.227Z,43.35
2018-09-18T06:26:30.914Z,45.03
2018-09-18T06:28:58.731Z,44.95
2018-09-18T06:31:26.379Z,45.93
2018-09-18T06:33:54.046Z,46.99
2018-09-18T06:36:21.848Z,48.28
2018-09-18T06:38:49.507Z,47.61
2018-09-18T06:41:17.181Z,47.92
2018-09-18T06:43:44.873Z,46.70
2018-09-18T06:46:12.549Z,46.19
2018-09-18T06:48:40.206Z,49.51
2018-09-18T06:51:07.986Z,49.44
2018-09-18T06:53:35.667Z,48.15
2018-09-18T06:56:03.388Z,46.89
2018-09-18T06:58:31.110Z,46.85
2018-09-18T07:00:58.819Z,46.45
2018-09-18T07:03:26.533Z,46.22
2018-09-18T07:05:54.227Z,46.17
2018-09-18T07:08:21.905Z,46.38
2018-09-18T07:10:49.650Z,46.92
2018-09-18T07:13:17.401Z,45.85
2018-09-18T07:15:45.082Z,44.81
2018-09-18T07:18:12.765Z,44.42
2018-09-18T07:20:40.477Z,44.84
2018-09-18T07:23:08.201Z,43.13
2018-09-18T07:25:35.941Z,43.56
2018-09-18T07:28:03.690Z,43.18
2018-09-18T07:30:31.416Z,41.55
2018-09-18T07:32:59.105Z,41.64
2018-09-18T07:35:26.824Z,41.29
2018-09-18T07:37:54.510Z,40.98
2018-09-18T07:40:22.194Z,40.82
2018-09-18T07:42:49.922Z,40.88
2018-09-18T07:45:17.593Z,41.27
2018-09-18T07:47:45.269Z,40.93
2018-09-18T07:50:13.293Z,41.36
2018-09-18T07:52:40.973Z,38.44
2018-09-18T07:55:08.633Z,38.26
2018-09-18T07:57:36.601Z,38.80
2018-09-18T08:00:04.620Z,37.89
2018-09-18T08:02:32.301Z,38.81
2018-09-18T08:05:00.014Z,38.02
2018-09-18T08:07:27.727Z,37.12
2018-09-18T08:09:55.404Z,35.77
2018-09-18T08:12:23.157Z,34.27
2018-09-18T08:14:50.860Z,35.24
2018-09-18T08:17:18.516Z,36.00
2018-09-18T08:19:46.355Z,35.14
2018-09-18T08:22:13.981Z,33.45
2018-09-18T08:24:41.653Z,36.19
2018-09-18T08:27:09.361Z,33.87
2018-09-18T08:29:37.062Z,32.97
2018-09-18T08:32:04.782Z,33.55
2018-09-18T08:34:32.469Z,33.94
2018-09-18T08:37:00.136Z,35.20
2018-09-18T08:39:27.813Z,33.98
2018-09-18T08:41:55.530Z,33.49
2018-09-18T08:44:23.204Z,33.10
2018-09-18T08:46:50.912Z,32.87
2018-09-18T08:49:18.642Z,34.44
2018-09-18T08:51:46.360Z,33.23
2018-09-18T08:54:14.116Z,32.59
2018-09-18T08:56:41.823Z,32.75
2018-09-18T08:59:09.542Z,31.92
2018-09-18T09:01:37.214Z,31.18
2018-09-18T09:04:04.952Z,31.06
2018-09-18T09:06:32.711Z,32.66
2018-09-18T09:09:00.421Z,32.05
2018-09-18T09:11:28.100Z,30.90
2018-09-18T09:13:55.809Z,31.36
2018-09-18T09:16:23.484Z,30.52
2018-09-18T09:18:51.211Z,29.87
2018-09-18T09:21:18.947Z,29.54
2018-09-18T09:23:46.623Z,31.67
2018-09-18T09:26:14.456Z,31.64
2018-09-18T09:28:42.122Z,29.94
2018-09-18T09:31:09.897Z,30.55
2018-09-18T09:33:37.753Z,30.12
2018-09-18T09:36:05.562Z,29.35
2018-09-18T09:38:33.310Z,28.77
2018-09-18T09:41:01.036Z,27.71
2018-09-18T09:43:28.778Z,28.57
2018-09-18T09:45:56.522Z,29.04
2018-09-18T09:48:24.293Z,29.36
2018-09-18T09:50:52.090Z,27.64
2018-09-18T09:53:19.846Z,27.59
2018-09-18T09:55:47.624Z,27.62
2018-09-18T09:58:15.377Z,28.40
2018-09-18T10:00:48.614Z,27.39
2018-09-18T10:03:16.373Z,27.49
2018-09-18T10:05:44.043Z,26.40
2018-09-18T10:08:11.773Z,28.12
2018-09-18T10:10:39.559Z,27.46
2018-09-18T10:13:07.290Z,28.54
2018-09-18T10:15:35.366Z,27.55
2018-09-18T10:18:03.146Z,26.95
2018-09-18T10:20:30.794Z,27.97
2018-09-18T10:22:58.526Z,27.37
2018-09-18T10:25:26.299Z,26.97
2018-09-18T10:27:54.390Z,28.20
2018-09-18T10:30:22.251Z,26.05
2018-09-18T10:32:50.302Z,26.70
2018-09-18T10:35:17.911Z,27.06
2018-09-18T10:37:45.706Z,25.66
2018-09-18T10:40:13.409Z,25.98
2018-09-18T10:42:41.146Z,27.23
2018-09-18T10:45:09.058Z,25.70
2018-09-18T10:47:36.978Z,26.59
2018-09-18T10:50:04.962Z,26.76
2018-09-18T10:52:32.772Z,26.06
2018-09-18T10:55:00.459Z,25.93
2018-09-18T10:57:28.285Z,24.18
2018-09-18T10:59:56.016Z,24.15
2018-09-18T11:02:23.842Z,24.60
2018-09-18T11:04:51.523Z,26.06
2018-09-18T11:07:19.371Z,25.92
2018-09-18T11:09:47.088Z,25.30
2018-09-18T11:12:14.816Z,24.90
2018-09-18T11:14:42.704Z,25.20
2018-09-18T11:17:10.397Z,24.32
2018-09-18T11:19:38.244Z,25.08
2018-09-18T11:22:06.070Z,23.32
2018-09-18T11:24:33.798Z,25.10
2018-09-18T11:27:01.610Z,23.28
2018-09-18T11:29:29.444Z,24.16
2018-09-18T11:31:57.213Z,24.95
2018-09-18T11:34:24.926Z,24.91
2018-09-18T11:36:52.723Z,24.57
2018-09-18T11:39:20.457Z,23.64
2018-09-18T11:41:48.134Z,24.15
2018-09-18T11:44:15.913Z,24.58
2018-09-18T11:46:43.709Z,24.71
2018-09-18T11:49:11.465Z,24.57
2018-09-18T11:51:39.200Z,25.55
2018-09-18T11:54:06.961Z,24.38
2018-09-18T11:56:34.685Z,23.58
2018-09-18T11:59:02.642Z,23.43
2018-09-18T12:01:30.385Z,22.25
2018-09-18T12:03:58.338Z,22.00
2018-09-18T12:06:26.121Z,22.16
2018-09-18T12:08:54.003Z,21.76
2018-09-18T12:11:21.670Z,23.50
2018-09-18T12:13:49.410Z,24.61
2018-09-18T12:16:17.110Z,23.93
2018-09-18T12:18:44.878Z,23.16
2018-09-18T12:21:12.646Z,23.41
2018-09-18T12:23:40.378Z,22.36
2018-09-18T12:26:08.150Z,22.79
2018-09-18T12:28:36.025Z,23.33
2018-09-18T12:31:03.758Z,24.32
2018-09-18T12:33:31.513Z,24.71
2018-09-18T12:35:59.374Z,25.19
2018-09-18T12:38:27.127Z,25.64
2018-09-18T12:40:54.862Z,25.53
2018-09-18T12:43:22.641Z,25.90
2018-09-18T12:45:50.354Z,25.41
2018-09-18T12:48:18.066Z,24.80
2018-09-18T12:50:45.905Z,25.00
2018-09-18T12:53:13.589Z,25.08
2018-09-18T12:55:41.329Z,24.01
2018-09-18T12:58:09.150Z,24.92
2018-09-18T13:00:37.053Z,25.14
2018-09-18T13:03:04.757Z,24.59
2018-09-18T13:05:32.522Z,25.10
2018-09-18T13:08:00.244Z,24.54
2018-09-18T13:10:27.986Z,25.27
2018-09-18T13:12:55.806Z,25.38
2018-09-18T13:15:23.595Z,26.39
2018-09-18T13:17:51.278Z,24.97
2018-09-18T13:20:19.037Z,24.66
2018-09-18T13:22:46.778Z,25.44
2018-09-18T13:25:14.483Z,24.79
2018-09-18T13:27:42.283Z,25.17
2018-09-18T13:30:10.002Z,25.13
2018-09-18T13:32:37.784Z,24.31
2018-09-18T13:35:05.497Z,24.21
2018-09-18T13:37:33.203Z,24.93
2018-09-18T13:40:00.931Z,24.67
2018-09-18T13:42:28.703Z,24.83
2018-09-18T13:44:56.497Z,25.33
2018-09-18T13:47:24.202Z,25.58
2018-09-18T13:49:52.023Z,26.12
2018-09-18T13:52:19.789Z,26.15
2018-09-18T13:54:47.554Z,26.02
2018-09-18T13:57:15.335Z,25.34
2018-09-18T13:59:43.038Z,24.69
2018-09-18T14:02:10.790Z,24.09
2018-09-18T14:04:38.577Z,24.69
2018-09-18T14:07:06.306Z,26.57
2018-09-18T14:09:34.103Z,27.19
2018-09-18T14:12:01.869Z,26.70
2018-09-18T14:14:29.585Z,26.70
2018-09-18T14:16:57.269Z,27.46
2018-09-18T14:19:25.033Z,27.61
2018-09-18T14:21:52.734Z,27.56
2018-09-18T14:24:20.449Z,28.08
2018-09-18T14:26:48.404Z,27.17
2018-09-18T14:29:16.113Z,26.70
2018-09-18T14:31:43.825Z,27.88
2018-09-18T14:34:11.546Z,29.35
2018-09-18T14:36:39.342Z,29.45
2018-09-18T14:39:08.620Z,28.53
2018-09-18T14:41:36.629Z,29.24
2018-09-18T14:44:04.391Z,29.72
2018-09-18T14:46:32.166Z,29.88
2018-09-18T14:48:59.930Z,29.87
2018-09-18T14:51:27.651Z,29.99
2018-09-18T14:53:55.333Z,30.33
2018-09-18T14:56:23.096Z,30.85
2018-09-18T14:58:50.821Z,30.93
2018-09-18T15:01:18.485Z,31.34
2018-09-18T15:03:46.310Z,31.60
2018-09-18T15:06:14.105Z,31.92
2018-09-18T15:08:41.759Z,31.21
2018-09-18T15:11:09.574Z,32.44
2018-09-18T15:13:37.293Z,32.17
2018-09-18T15:16:05.074Z,31.53
2018-09-18T15:18:32.814Z,31.81
2018-09-18T15:21:00.605Z,31.73
2018-09-18T15:23:28.369Z,31.20
2018-09-18T15:25:56.185Z,32.29
2018-09-18T15:28:23.886Z,32.33
2018-09-18T15:30:51.629Z,32.18
2018-09-18T15:33:19.374Z,31.95
2018-09-18T15:35:47.078Z,32.99
2018-09-18T15:38:14.798Z,32.86
2018-09-18T15:40:42.621Z,33.04
2018-09-18T15:43:10.502Z,34.25
2018-09-18T15:45:38.272Z,34.73
2018-09-18T15:48:05.947Z,34.42
2018-09-18T15:50:33.666Z,34.49
2018-09-18T15:53:01.394Z,35.23
2018-09-18T15:55:29.562Z,35.39
2018-09-18T15:57:57.339Z,35.53
2018-09-18T16:00:25.045Z,36.10
2018-09-18T16:02:53.074Z,35.15
2018-09-18T16:05:20.821Z,35.92
2018-09-18T16:07:48.553Z,35.51
2018-09-18T16:10:16.310Z,36.09
2018-09-18T16:12:44.081Z,36.19
2018-09-18T16:15:11.924Z,36.28
2018-09-18T16:17:39.732Z,36.57
2018-09-18T16:20:07.540Z,36.53
2018-09-18T16:22:35.276Z,36.27
2018-09-18T16:25:03.153Z,36.90
2018-09-18T16:27:30.847Z,37.60
2018-09-18T16:29:58.585Z,38.39
2018-09-18T16:32:26.301Z,38.03
2018-09-18T16:34:54.045Z,38.93
2018-09-18T16:37:21.756Z,38.75
2018-09-18T16:39:49.490Z,39.31
2018-09-18T16:42:17.200Z,40.14
2018-09-18T16:44:44.915Z,40.22
2018-09-18T16:47:12.655Z,41.01
2018-09-18T16:49:40.348Z,40.88
2018-09-18T16:54:35.858Z,40.09
2018-09-18T16:57:03.738Z,41.33
2018-09-18T16:59:31.445Z,41.25
2018-09-18T17:01:59.190Z,40.66
2018-09-18T17:04:27.158Z,41.78
2018-09-18T17:06:54.932Z,42.44
2018-09-18T17:09:22.643Z,42.42
2018-09-18T17:11:50.321Z,42.97
2018-09-18T17:14:18.004Z,42.80
2018-09-18T17:16:45.715Z,42.92
2018-09-18T17:19:13.377Z,42.94
2018-09-18T17:21:41.061Z,42.58
2018-09-18T17:24:08.781Z,42.21
2018-09-18T17:26:36.458Z,42.82
2018-09-18T17:29:04.281Z,43.15
2018-09-18T17:31:32.027Z,41.75
2018-09-18T17:33:59.818Z,43.04
2018-09-18T17:36:27.753Z,43.59
2018-09-18T17:38:55.488Z,42.64
2018-09-18T17:41:23.172Z,42.84
2018-09-18T17:43:50.868Z,43.36
2018-09-18T17:46:18.595Z,43.93
2018-09-18T17:48:46.335Z,44.79
2018-09-18T17:51:14.002Z,43.82
2018-09-18T17:53:41.774Z,44.34
2018-09-18T17:56:09.547Z,44.25
2018-09-18T17:58:37.222Z,44.22
2018-09-18T18:01:04.941Z,44.98
2018-09-18T18:03:32.601Z,44.59
2018-09-18T18:06:00.291Z,45.85
2018-09-18T18:08:28.056Z,44.71
2018-09-18T18:10:55.759Z,44.92
2018-09-18T18:13:23.457Z,44.57
2018-09-18T18:15:51.174Z,44.95
2018-09-18T18:18:18.860Z,45.17
2018-09-18T18:20:46.566Z,44.49
2018-09-18T18:23:14.309Z,44.31
2018-09-18T18:25:42.011Z,45.51
2018-09-18T18:28:09.707Z,45.00
2018-09-18T18:30:37.391Z,45.56
2018-09-18T18:33:05.109Z,46.12
2018-09-18T18:35:32.834Z,46.21
2018-09-18T18:38:00.547Z,46.83
2018-09-18T18:40:28.213Z,46.31
2018-09-18T18:42:55.905Z,46.66
2018-09-18T18:45:24.526Z,47.41
2018-09-18T18:47:52.291Z,46.81
2018-09-18T18:50:19.887Z,47.35
2018-09-18T18:52:47.597Z,47.61
2018-09-18T18:55:15.307Z,48.95
2018-09-18T18:57:43.218Z,49.17
2018-09-18T19:00:10.981Z,50.48
2018-09-18T19:02:38.748Z,50.08
2018-09-18T19:05:06.618Z,50.31
2018-09-18T19:07:34.317Z,50.21
2018-09-18T19:10:02.000Z,50.16
2018-09-18T19:12:29.691Z,49.93
2018-09-18T19:14:57.431Z,50.71
2018-09-18T19:17:25.115Z,50.16
2018-09-18T19:19:53.214Z,50.74
2018-09-18T19:22:21.031Z,50.52
2018-09-18T19:24:48.790Z,50.65
2018-09-18T19:27:16.471Z,50.65
2018-09-18T19:29:44.196Z,50.18
2018-09-18T19:32:11.973Z,50.69
2018-09-18T19:34:39.647Z,50.15
2018-09-18T19:37:07.444Z,50.44
2018-09-18T19:39:35.129Z,50.87
2018-09-18T19:42:02.819Z,50.58
2018-09-18T19:44:30.559Z,51.17
2018-09-18T19:46:58.414Z,51.76
2018-09-18T19:49:26.079Z,52.62
2018-09-18T19:51:53.813Z,52.31
2018-09-18T19:54:21.569Z,52.76
2018-09-18T19:56:49.240Z,53.15
2018-09-18T19:59:16.958Z,53.00
2018-09-18T20:01:44.693Z,52.76
2018-09-18T20:04:12.396Z,53.15
2018-09-18T20:06:40.238Z,53.20
2018-09-18T20:09:09.323Z,53.55
2018-09-18T20:11:37.164Z,54.10
2018-09-18T20:14:04.868Z,54.57
2018-09-18T20:16:32.829Z,55.12
2018-09-18T20:19:00.533Z,53.96
2018-09-18T20:21:28.249Z,53.42
2018-09-18T20:23:55.925Z,53.48
2018-09-18T20:26:23.619Z,53.44
2018-09-18T20:28:51.374Z,53.86
2018-09-18T20:31:19.064Z,54.90
2018-09-18T20:33:46.750Z,56.35
2018-09-18T20:36:14.655Z,55.70
2018-09-18T20:38:42.186Z,55.65
2018-09-18T20:41:09.841Z,56.06
2018-09-18T20:43:37.583Z,56.08
2018-09-18T20:46:05.301Z,56.78
2018-09-18T20:48:32.960Z,56.63
2018-09-18T20:51:00.669Z,56.58
2018-09-18T20:53:28.329Z,57.20
2018-09-18T20:55:55.996Z,57.51
2018-09-18T20:58:23.697Z,58.03
2018-09-18T21:00:51.378Z,57.70
2018-09-18T21:03:19.067Z,57.50
2018-09-18T21:05:46.889Z,58.02
2018-09-18T21:08:14.600Z,58.01
2018-09-18T21:10:42.262Z,58.10
2018-09-18T21:13:09.978Z,59.05
2018-09-18T21:15:37.665Z,60.07
2018-09-18T21:18:05.384Z,60.13
2018-09-18T21:20:33.111Z,59.92
2018-09-18T21:23:00.783Z,60.41
2018-09-18T21:25:37.566Z,61.36
2018-09-18T21:28:05.254Z,61.29
2018-09-18T21:30:32.941Z,61.83
2018-09-18T21:33:00.733Z,61.75
2018-09-18T21:35:28.463Z,61.82
2018-09-18T21:37:56.163Z,62.34
2018-09-18T21:40:23.930Z,62.83
2018-09-18T21:42:51.677Z,63.15
2018-09-18T21:45:19.367Z,63.22
2018-09-18T21:47:47.133Z,62.02
2018-09-18T21:50:14.822Z,62.27
2018-09-18T21:52:42.485Z,61.81
2018-09-18T21:55:10.274Z,61.24
2018-09-18T21:57:38.037Z,62.83
2018-09-18T22:00:06.545Z,60.97
2018-09-18T22:02:34.318Z,60.94
2018-09-18T22:05:02.016Z,61.32
2018-09-18T22:07:29.710Z,61.02
2018-09-18T22:09:57.419Z,60.67
2018-09-18T22:12:25.125Z,62.55
2018-09-18T22:14:52.789Z,61.31
2018-09-18T22:17:20.486Z,61.44
2018-09-18T22:19:48.146Z,61.69
2018-09-18T22:22:15.856Z,62.32
2018-09-18T22:24:43.565Z,62.92
2018-09-18T22:27:11.233Z,62.42
2018-09-18T22:29:38.915Z,62.57
2018-09-18T22:32:06.701Z,64.20
2018-09-18T22:34:34.377Z,63.63
2018-09-18T22:37:02.053Z,62.87
2018-09-18T22:39:29.842Z,62.90
2018-09-18T22:41:57.508Z,63.07
2018-09-18T22:44:25.166Z,62.63
2018-09-18T22:46:52.891Z,62.68
2018-09-18T22:49:20.646Z,62.77
2018-09-18T22:51:48.260Z,62.54
2018-09-18T22:54:15.953Z,62.40
2018-09-18T22:56:43.818Z,62.79
2018-09-18T22:59:11.498Z,62.78
2018-09-18T23:01:39.206Z,62.11
2018-09-18T23:04:06.886Z,62.02
2018-09-18T23:06:34.545Z,62.33
2018-09-18T23:09:02.269Z,62.75
2018-09-18T23:11:29.952Z,63.52
2018-09-18T23:13:57.902Z,63.13
2018-09-18T23:16:25.597Z,63.88
2018-09-18T23:18:53.289Z,63.32
2018-09-18T23:21:20.961Z,63.59
2018-09-18T23:23:48.688Z,63.13
2018-09-18T23:26:16.352Z,62.78
2018-09-18T23:28:44.015Z,63.60
2018-09-18T23:31:11.702Z,63.47
2018-09-18T23:33:39.386Z,62.78
2018-09-18T23:36:07.106Z,63.19
2018-09-18T23:38:34.794Z,63.40
2018-09-18T23:41:02.505Z,63.54
2018-09-18T23:43:30.257Z,64.40
2018-09-18T23:45:57.963Z,64.28
2018-09-18T23:48:25.617Z,64.82
2018-09-18T23:50:53.303Z,64.78
2018-09-18T23:53:20.989Z,65.39
2018-09-18T23:55:48.664Z,64.93
2018-09-18T23:58:16.333Z,65.12
